sensor_id;sensor_type;location;lat;lon;timestamp;P1;durP1;ratioP1;P2;durP2;ratioP2
20792;SDS011;10556;-33.662;151.094;2023-04-03T00:04:20;0.67;;;0.50;;
20792;SDS011;10556;-33.662;151.094;2023-04-03T00:09:22;3.80;;;0.70;;
20792;SDS011;10556;-33.662;151.094;2023-04-03T00:14:25;0.80;;;0.40;;
20792;SDS011;10556;-33.662;151.094;2023-04-03T00:19:27;1.83;;;0.40;;
20792;SDS011;10556;-33.662;151.094;2023-04-03T00:24:28;0.93;;;0.30;;
20792;SDS011;10556;-33.662;151.094;2023-04-03T00:29:31;2.90;;;0.30;;
20792;SDS011;10556;-33.662;151.094;2023-04-03T00:34:32;0.60;;;0.30;;
20792;SDS011;10556;-33.662;151.094;2023-04-03T00:39:33;2.57;;;0.30;;
20792;SDS011;10556;-33.662;151.094;2023-04-03T00:49:55;3.63;;;0.50;;
20792;SDS011;10556;-33.662;151.094;2023-04-03T00:54:58;2.97;;;0.30;;
20792;SDS011;10556;-33.662;151.094;2023-04-03T01:00:01;1.10;;;0.40;;
20792;SDS011;10556;-33.662;151.094;2023-04-03T01:05:05;2.13;;;0.20;;
20792;SDS011;10556;-33.662;151.094;2023-04-03T01:10:08;1.50;;;0.30;;
20792;SDS011;10556;-33.662;151.094;2023-04-03T01:15:10;1.23;;;0.30;;
20792;SDS011;10556;-33.662;151.094;2023-04-03T01:20:34;1.43;;;0.30;;
20792;SDS011;10556;-33.662;151.094;2023-04-03T01:25:38;0.60;;;0.30;;
20792;SDS011;10556;-33.662;151.094;2023-04-03T01:30:41;0.73;;;0.27;;
20792;SDS011;10556;-33.662;151.094;2023-04-03T01:35:45;0.83;;;0.50;;
20792;SDS011;10556;-33.662;151.094;2023-04-03T01:40:46;1.50;;;0.57;;
20792;SDS011;10556;-33.662;151.094;2023-04-03T01:45:48;3.57;;;0.40;;
20792;SDS011;10556;-33.662;151.094;2023-04-03T01:50:51;1.10;;;0.33;;
20792;SDS011;10556;-33.662;151.094;2023-04-03T01:55:52;1.27;;;0.40;;
20792;SDS011;10556;-33.662;151.094;2023-04-03T02:00:53;2.63;;;0.40;;
20792;SDS011;10556;-33.662;151.094;2023-04-03T02:05:56;2.20;;;0.37;;
20792;SDS011;10556;-33.662;151.094;2023-04-03T02:10:58;3.00;;;0.40;;
20792;SDS011;10556;-33.662;151.094;2023-04-03T02:15:59;0.93;;;0.20;;
20792;SDS011;10556;-33.662;151.094;2023-04-03T02:21:02;7.40;;;0.60;;
20792;SDS011;10556;-33.662;151.094;2023-04-03T02:26:04;1.43;;;0.40;;
20792;SDS011;10556;-33.662;151.094;2023-04-03T02:31:06;0.90;;;0.30;;
20792;SDS011;10556;-33.662;151.094;2023-04-03T02:36:09;3.07;;;0.57;;
20792;SDS011;10556;-33.662;151.094;2023-04-03T02:41:11;2.73;;;0.40;;
20792;SDS011;10556;-33.662;151.094;2023-04-03T02:46:12;3.03;;;0.40;;
20792;SDS011;10556;-33.662;151.094;2023-04-03T02:51:15;1.73;;;0.30;;
20792;SDS011;10556;-33.662;151.094;2023-04-03T02:56:16;2.67;;;0.67;;
20792;SDS011;10556;-33.662;151.094;2023-04-03T03:01:17;2.47;;;0.60;;
20792;SDS011;10556;-33.662;151.094;2023-04-03T03:06:21;1.13;;;0.30;;
20792;SDS011;10556;-33.662;151.094;2023-04-03T03:11:22;2.77;;;0.50;;
20792;SDS011;10556;-33.662;151.094;2023-04-03T03:16:23;2.93;;;0.63;;
20792;SDS011;10556;-33.662;151.094;2023-04-03T03:21:26;6.07;;;0.87;;
20792;SDS011;10556;-33.662;151.094;2023-04-03T03:26:27;6.47;;;0.70;;
20792;SDS011;10556;-33.662;151.094;2023-04-03T03:31:29;1.90;;;0.70;;
20792;SDS011;10556;-33.662;151.094;2023-04-03T03:36:32;6.03;;;0.80;;
20792;SDS011;10556;-33.662;151.094;2023-04-03T03:41:33;3.00;;;0.60;;
20792;SDS011;10556;-33.662;151.094;2023-04-03T03:46:34;5.60;;;0.90;;
20792;SDS011;10556;-33.662;151.094;2023-04-03T03:51:37;3.53;;;0.70;;
20792;SDS011;10556;-33.662;151.094;2023-04-03T03:56:39;3.53;;;0.80;;
20792;SDS011;10556;-33.662;151.094;2023-04-03T04:01:40;1.77;;;0.60;;
20792;SDS011;10556;-33.662;151.094;2023-04-03T04:06:50;7.07;;;1.23;;
20792;SDS011;10556;-33.662;151.094;2023-04-03T04:11:51;6.50;;;0.93;;
20792;SDS011;10556;-33.662;151.094;2023-04-03T04:16:53;2.57;;;0.70;;
20792;SDS011;10556;-33.662;151.094;2023-04-03T04:21:56;6.20;;;0.87;;
20792;SDS011;10556;-33.662;151.094;2023-04-03T04:26:57;3.87;;;1.00;;
20792;SDS011;10556;-33.662;151.094;2023-04-03T04:31:58;2.77;;;0.60;;
20792;SDS011;10556;-33.662;151.094;2023-04-03T04:37:01;3.17;;;0.47;;
20792;SDS011;10556;-33.662;151.094;2023-04-03T04:42:02;3.13;;;0.70;;
20792;SDS011;10556;-33.662;151.094;2023-04-03T04:47:04;5.83;;;1.00;;
20792;SDS011;10556;-33.662;151.094;2023-04-03T04:52:07;3.43;;;0.60;;
20792;SDS011;10556;-33.662;151.094;2023-04-03T04:57:08;3.53;;;0.83;;
20792;SDS011;10556;-33.662;151.094;2023-04-03T05:02:09;1.67;;;0.30;;
20792;SDS011;10556;-33.662;151.094;2023-04-03T05:07:12;1.73;;;0.30;;
20792;SDS011;10556;-33.662;151.094;2023-04-03T05:12:13;5.77;;;0.90;;
20792;SDS011;10556;-33.662;151.094;2023-04-03T05:17:15;2.63;;;0.77;;
20792;SDS011;10556;-33.662;151.094;2023-04-03T05:22:18;2.87;;;0.87;;
20792;SDS011;10556;-33.662;151.094;2023-04-03T05:27:19;3.50;;;0.37;;
20792;SDS011;10556;-33.662;151.094;2023-04-03T05:32:20;1.93;;;0.60;;
20792;SDS011;10556;-33.662;151.094;2023-04-03T05:37:23;1.93;;;0.57;;
20792;SDS011;10556;-33.662;151.094;2023-04-03T05:42:25;4.03;;;0.57;;
20792;SDS011;10556;-33.662;151.094;2023-04-03T05:47:26;3.00;;;1.00;;
20792;SDS011;10556;-33.662;151.094;2023-04-03T05:52:29;1.53;;;0.30;;
20792;SDS011;10556;-33.662;151.094;2023-04-03T05:57:31;2.53;;;0.40;;
20792;SDS011;10556;-33.662;151.094;2023-04-03T06:02:32;7.10;;;0.83;;
20792;SDS011;10556;-33.662;151.094;2023-04-03T06:07:35;3.33;;;0.60;;
20792;SDS011;10556;-33.662;151.094;2023-04-03T06:12:36;9.90;;;1.27;;
20792;SDS011;10556;-33.662;151.094;2023-04-03T06:17:38;1.90;;;0.50;;
20792;SDS011;10556;-33.662;151.094;2023-04-03T06:22:41;2.93;;;0.60;;
20792;SDS011;10556;-33.662;151.094;2023-04-03T06:27:42;3.33;;;0.40;;
20792;SDS011;10556;-33.662;151.094;2023-04-03T06:32:43;1.83;;;0.60;;
20792;SDS011;10556;-33.662;151.094;2023-04-03T06:37:46;4.27;;;0.70;;
20792;SDS011;10556;-33.662;151.094;2023-04-03T06:42:48;3.10;;;0.73;;
20792;SDS011;10556;-33.662;151.094;2023-04-03T06:47:49;3.63;;;0.50;;
20792;SDS011;10556;-33.662;151.094;2023-04-03T06:52:52;2.53;;;0.40;;
20792;SDS011;10556;-33.662;151.094;2023-04-03T06:57:53;1.90;;;0.33;;
20792;SDS011;10556;-33.662;151.094;2023-04-03T07:02:54;6.27;;;0.60;;
20792;SDS011;10556;-33.662;151.094;2023-04-03T07:07:57;2.20;;;0.43;;
20792;SDS011;10556;-33.662;151.094;2023-04-03T07:12:58;3.60;;;0.60;;
20792;SDS011;10556;-33.662;151.094;2023-04-03T07:18:00;3.93;;;0.50;;
20792;SDS011;10556;-33.662;151.094;2023-04-03T07:23:03;4.20;;;0.67;;
20792;SDS011;10556;-33.662;151.094;2023-04-03T07:28:04;2.57;;;0.30;;
20792;SDS011;10556;-33.662;151.094;2023-04-03T07:33:05;0.80;;;0.40;;
20792;SDS011;10556;-33.662;151.094;2023-04-03T07:38:08;4.53;;;0.60;;
20792;SDS011;10556;-33.662;151.094;2023-04-03T07:43:10;3.30;;;0.53;;
20792;SDS011;10556;-33.662;151.094;2023-04-03T07:48:11;3.10;;;0.50;;
20792;SDS011;10556;-33.662;151.094;2023-04-03T07:53:15;0.70;;;0.30;;
20792;SDS011;10556;-33.662;151.094;2023-04-03T07:58:16;3.47;;;0.50;;
20792;SDS011;10556;-33.662;151.094;2023-04-03T08:03:18;3.23;;;0.63;;
20792;SDS011;10556;-33.662;151.094;2023-04-03T08:08:22;4.03;;;0.70;;
20792;SDS011;10556;-33.662;151.094;2023-04-03T08:13:23;2.13;;;0.50;;
20792;SDS011;10556;-33.662;151.094;2023-04-03T08:18:24;0.87;;;0.40;;
20792;SDS011;10556;-33.662;151.094;2023-04-03T08:23:27;1.60;;;0.30;;
20792;SDS011;10556;-33.662;151.094;2023-04-03T08:28:29;3.10;;;0.47;;
20792;SDS011;10556;-33.662;151.094;2023-04-03T08:33:30;3.40;;;0.73;;
20792;SDS011;10556;-33.662;151.094;2023-04-03T08:38:33;2.10;;;0.50;;
20792;SDS011;10556;-33.662;151.094;2023-04-03T08:43:36;2.30;;;0.60;;
20792;SDS011;10556;-33.662;151.094;2023-04-03T08:48:40;6.43;;;1.17;;
20792;SDS011;10556;-33.662;151.094;2023-04-03T08:53:44;10.63;;;1.27;;
20792;SDS011;10556;-33.662;151.094;2023-04-03T08:58:47;10.13;;;1.00;;
20792;SDS011;10556;-33.662;151.094;2023-04-03T09:03:49;6.00;;;1.10;;
20792;SDS011;10556;-33.662;151.094;2023-04-03T09:08:56;8.77;;;1.17;;
20792;SDS011;10556;-33.662;151.094;2023-04-03T09:14:01;2.57;;;0.80;;
20792;SDS011;10556;-33.662;151.094;2023-04-03T09:19:06;3.00;;;0.73;;
20792;SDS011;10556;-33.662;151.094;2023-04-03T09:24:12;4.13;;;0.90;;
20792;SDS011;10556;-33.662;151.094;2023-04-03T09:29:15;3.60;;;0.80;;
20792;SDS011;10556;-33.662;151.094;2023-04-03T09:34:20;5.33;;;1.10;;
20792;SDS011;10556;-33.662;151.094;2023-04-03T09:39:24;3.77;;;1.03;;
20792;SDS011;10556;-33.662;151.094;2023-04-03T09:44:26;5.20;;;1.17;;
20792;SDS011;10556;-33.662;151.094;2023-04-03T09:49:28;4.57;;;1.43;;
20792;SDS011;10556;-33.662;151.094;2023-04-03T09:54:37;5.43;;;1.13;;
20792;SDS011;10556;-33.662;151.094;2023-04-03T09:59:46;7.47;;;1.17;;
20792;SDS011;10556;-33.662;151.094;2023-04-03T10:04:47;3.20;;;1.03;;
20792;SDS011;10556;-33.662;151.094;2023-04-03T10:09:56;3.43;;;1.10;;
20792;SDS011;10556;-33.662;151.094;2023-04-03T10:14:57;3.30;;;0.63;;
20792;SDS011;10556;-33.662;151.094;2023-04-03T10:19:59;1.97;;;0.60;;
20792;SDS011;10556;-33.662;151.094;2023-04-03T10:25:04;4.83;;;0.90;;
20792;SDS011;10556;-33.662;151.094;2023-04-03T10:30:16;3.50;;;0.90;;
20792;SDS011;10556;-33.662;151.094;2023-04-03T10:35:23;2.80;;;1.00;;
20792;SDS011;10556;-33.662;151.094;2023-04-03T10:40:30;3.23;;;1.20;;
20792;SDS011;10556;-33.662;151.094;2023-04-03T10:45:41;4.03;;;1.03;;
20792;SDS011;10556;-33.662;151.094;2023-04-03T10:50:47;2.37;;;0.90;;
20792;SDS011;10556;-33.662;151.094;2023-04-03T10:55:56;6.70;;;1.33;;
20792;SDS011;10556;-33.662;151.094;2023-04-03T11:01:00;3.57;;;0.83;;
20792;SDS011;10556;-33.662;151.094;2023-04-03T11:06:05;2.13;;;0.60;;
20792;SDS011;10556;-33.662;151.094;2023-04-03T11:11:12;1.93;;;0.50;;
20792;SDS011;10556;-33.662;151.094;2023-04-03T11:16:14;3.93;;;0.80;;
20792;SDS011;10556;-33.662;151.094;2023-04-03T11:21:19;2.13;;;0.73;;
20792;SDS011;10556;-33.662;151.094;2023-04-03T11:26:23;4.00;;;0.57;;
20792;SDS011;10556;-33.662;151.094;2023-04-03T11:31:29;3.00;;;0.83;;
20792;SDS011;10556;-33.662;151.094;2023-04-03T11:36:33;3.63;;;0.77;;
20792;SDS011;10556;-33.662;151.094;2023-04-03T11:41:41;3.67;;;0.90;;
20792;SDS011;10556;-33.662;151.094;2023-04-03T11:46:54;3.23;;;1.20;;
20792;SDS011;10556;-33.662;151.094;2023-04-03T11:51:56;4.83;;;1.60;;
20792;SDS011;10556;-33.662;151.094;2023-04-03T11:56:59;4.93;;;1.10;;
20792;SDS011;10556;-33.662;151.094;2023-04-03T12:02:00;4.73;;;0.90;;
20792;SDS011;10556;-33.662;151.094;2023-04-03T12:12:31;3.60;;;0.90;;
20792;SDS011;10556;-33.662;151.094;2023-04-03T12:17:33;3.67;;;0.80;;
20792;SDS011;10556;-33.662;151.094;2023-04-03T12:22:34;4.73;;;1.17;;
20792;SDS011;10556;-33.662;151.094;2023-04-03T12:27:40;4.80;;;1.20;;
20792;SDS011;10556;-33.662;151.094;2023-04-03T12:32:54;2.40;;;1.00;;
20792;SDS011;10556;-33.662;151.094;2023-04-03T12:38:11;4.77;;;1.17;;
20792;SDS011;10556;-33.662;151.094;2023-04-03T12:43:20;4.27;;;1.53;;
20792;SDS011;10556;-33.662;151.094;2023-04-03T12:48:26;7.13;;;1.10;;
20792;SDS011;10556;-33.662;151.094;2023-04-03T12:53:28;3.30;;;0.90;;
20792;SDS011;10556;-33.662;151.094;2023-04-03T12:58:34;3.47;;;0.67;;
20792;SDS011;10556;-33.662;151.094;2023-04-03T13:03:35;3.30;;;0.53;;
20792;SDS011;10556;-33.662;151.094;2023-04-03T13:08:38;2.40;;;0.70;;
20792;SDS011;10556;-33.662;151.094;2023-04-03T13:14:00;3.03;;;1.07;;
20792;SDS011;10556;-33.662;151.094;2023-04-03T13:19:02;2.93;;;0.50;;
20792;SDS011;10556;-33.662;151.094;2023-04-03T13:24:03;2.03;;;0.60;;
20792;SDS011;10556;-33.662;151.094;2023-04-03T13:29:07;3.80;;;0.60;;
20792;SDS011;10556;-33.662;151.094;2023-04-03T13:34:17;3.03;;;0.80;;
20792;SDS011;10556;-33.662;151.094;2023-04-03T13:39:21;2.93;;;0.60;;
20792;SDS011;10556;-33.662;151.094;2023-04-03T13:44:32;2.90;;;0.50;;
20792;SDS011;10556;-33.662;151.094;2023-04-03T13:49:35;1.40;;;0.50;;
20792;SDS011;10556;-33.662;151.094;2023-04-03T13:54:37;2.80;;;0.50;;
20792;SDS011;10556;-33.662;151.094;2023-04-03T13:59:40;1.23;;;0.33;;
20792;SDS011;10556;-33.662;151.094;2023-04-03T14:04:46;3.77;;;0.53;;
20792;SDS011;10556;-33.662;151.094;2023-04-03T14:09:48;2.80;;;0.50;;
20792;SDS011;10556;-33.662;151.094;2023-04-03T14:14:51;2.00;;;0.40;;
20792;SDS011;10556;-33.662;151.094;2023-04-03T14:19:53;1.63;;;0.30;;
20792;SDS011;10556;-33.662;151.094;2023-04-03T14:24:55;0.67;;;0.30;;
20792;SDS011;10556;-33.662;151.094;2023-04-03T14:29:58;0.80;;;0.43;;
20792;SDS011;10556;-33.662;151.094;2023-04-03T14:34:59;2.63;;;0.40;;
20792;SDS011;10556;-33.662;151.094;2023-04-03T14:40:00;2.90;;;0.60;;
20792;SDS011;10556;-33.662;151.094;2023-04-03T14:45:04;2.00;;;0.47;;
20792;SDS011;10556;-33.662;151.094;2023-04-03T14:50:14;1.80;;;0.20;;
20792;SDS011;10556;-33.662;151.094;2023-04-03T14:55:16;0.63;;;0.30;;
20792;SDS011;10556;-33.662;151.094;2023-04-03T15:00:19;1.80;;;0.70;;
20792;SDS011;10556;-33.662;151.094;2023-04-03T15:05:21;2.47;;;0.37;;
20792;SDS011;10556;-33.662;151.094;2023-04-03T15:10:23;3.13;;;0.40;;
20792;SDS011;10556;-33.662;151.094;2023-04-03T15:15:28;5.87;;;0.40;;
20792;SDS011;10556;-33.662;151.094;2023-04-03T15:20:30;0.97;;;0.30;;
20792;SDS011;10556;-33.662;151.094;2023-04-03T15:25:32;2.23;;;0.40;;
20792;SDS011;10556;-33.662;151.094;2023-04-03T15:30:35;5.07;;;0.60;;
20792;SDS011;10556;-33.662;151.094;2023-04-03T15:35:37;6.13;;;0.70;;
20792;SDS011;10556;-33.662;151.094;2023-04-03T15:40:38;3.37;;;0.80;;
20792;SDS011;10556;-33.662;151.094;2023-04-03T15:45:41;3.23;;;0.60;;
20792;SDS011;10556;-33.662;151.094;2023-04-03T15:50:43;5.37;;;0.73;;
20792;SDS011;10556;-33.662;151.094;2023-04-03T15:55:44;1.90;;;0.40;;
20792;SDS011;10556;-33.662;151.094;2023-04-03T16:00:47;3.43;;;0.70;;
20792;SDS011;10556;-33.662;151.094;2023-04-03T16:05:49;3.23;;;0.40;;
20792;SDS011;10556;-33.662;151.094;2023-04-03T16:10:50;3.23;;;0.50;;
20792;SDS011;10556;-33.662;151.094;2023-04-03T16:15:53;4.33;;;0.43;;
20792;SDS011;10556;-33.662;151.094;2023-04-03T16:20:55;4.57;;;0.67;;
20792;SDS011;10556;-33.662;151.094;2023-04-03T16:25:56;5.30;;;0.83;;
20792;SDS011;10556;-33.662;151.094;2023-04-03T16:30:59;4.77;;;0.80;;
20792;SDS011;10556;-33.662;151.094;2023-04-03T16:36:03;2.67;;;0.40;;
20792;SDS011;10556;-33.662;151.094;2023-04-03T16:41:04;2.20;;;0.47;;
20792;SDS011;10556;-33.662;151.094;2023-04-03T16:46:07;4.60;;;0.57;;
20792;SDS011;10556;-33.662;151.094;2023-04-03T16:51:09;4.90;;;0.57;;
20792;SDS011;10556;-33.662;151.094;2023-04-03T16:56:10;4.60;;;0.53;;
20792;SDS011;10556;-33.662;151.094;2023-04-03T17:01:13;2.50;;;0.40;;
20792;SDS011;10556;-33.662;151.094;2023-04-03T17:06:16;3.07;;;0.50;;
20792;SDS011;10556;-33.662;151.094;2023-04-03T17:11:18;3.03;;;0.53;;
20792;SDS011;10556;-33.662;151.094;2023-04-03T17:16:21;2.90;;;0.50;;
20792;SDS011;10556;-33.662;151.094;2023-04-03T17:21:22;2.50;;;0.50;;
20792;SDS011;10556;-33.662;151.094;2023-04-03T17:31:35;4.17;;;0.60;;
20792;SDS011;10556;-33.662;151.094;2023-04-03T17:36:37;2.63;;;0.57;;
20792;SDS011;10556;-33.662;151.094;2023-04-03T17:41:38;2.17;;;0.40;;
20792;SDS011;10556;-33.662;151.094;2023-04-03T17:46:41;1.37;;;0.40;;
20792;SDS011;10556;-33.662;151.094;2023-04-03T17:51:43;3.00;;;0.50;;
20792;SDS011;10556;-33.662;151.094;2023-04-03T17:56:44;1.43;;;0.60;;
20792;SDS011;10556;-33.662;151.094;2023-04-03T18:01:47;2.33;;;0.30;;
20792;SDS011;10556;-33.662;151.094;2023-04-03T18:06:49;3.43;;;0.50;;
20792;SDS011;10556;-33.662;151.094;2023-04-03T18:11:51;2.17;;;0.50;;
20792;SDS011;10556;-33.662;151.094;2023-04-03T18:16:55;1.20;;;0.40;;
20792;SDS011;10556;-33.662;151.094;2023-04-03T18:21:56;2.00;;;0.60;;
20792;SDS011;10556;-33.662;151.094;2023-04-03T18:26:58;3.60;;;0.50;;
20792;SDS011;10556;-33.662;151.094;2023-04-03T18:32:02;5.60;;;0.60;;
20792;SDS011;10556;-33.662;151.094;2023-04-03T18:37:03;3.23;;;0.60;;
20792;SDS011;10556;-33.662;151.094;2023-04-03T18:42:05;3.70;;;0.80;;
20792;SDS011;10556;-33.662;151.094;2023-04-03T18:47:09;4.03;;;1.00;;
20792;SDS011;10556;-33.662;151.094;2023-04-03T18:52:12;3.17;;;0.60;;
20792;SDS011;10556;-33.662;151.094;2023-04-03T18:57:13;2.40;;;0.50;;
20792;SDS011;10556;-33.662;151.094;2023-04-03T19:02:16;3.27;;;0.73;;
20792;SDS011;10556;-33.662;151.094;2023-04-03T19:07:18;2.97;;;0.60;;
20792;SDS011;10556;-33.662;151.094;2023-04-03T19:12:20;2.63;;;0.70;;
20792;SDS011;10556;-33.662;151.094;2023-04-03T19:17:23;5.60;;;0.60;;
20792;SDS011;10556;-33.662;151.094;2023-04-03T19:22:24;3.77;;;0.83;;
20792;SDS011;10556;-33.662;151.094;2023-04-03T19:27:25;5.37;;;0.90;;
20792;SDS011;10556;-33.662;151.094;2023-04-03T19:32:28;3.87;;;0.80;;
20792;SDS011;10556;-33.662;151.094;2023-04-03T19:37:30;2.97;;;0.67;;
20792;SDS011;10556;-33.662;151.094;2023-04-03T19:42:31;2.53;;;0.47;;
20792;SDS011;10556;-33.662;151.094;2023-04-03T19:47:34;4.43;;;0.80;;
20792;SDS011;10556;-33.662;151.094;2023-04-03T19:52:35;2.37;;;0.80;;
20792;SDS011;10556;-33.662;151.094;2023-04-03T19:57:37;3.23;;;0.70;;
20792;SDS011;10556;-33.662;151.094;2023-04-03T20:02:40;2.53;;;0.63;;
20792;SDS011;10556;-33.662;151.094;2023-04-03T20:07:41;2.27;;;0.70;;
20792;SDS011;10556;-33.662;151.094;2023-04-03T20:12:42;4.33;;;0.77;;
20792;SDS011;10556;-33.662;151.094;2023-04-03T20:17:45;2.43;;;0.80;;
20792;SDS011;10556;-33.662;151.094;2023-04-03T20:22:47;2.63;;;0.77;;
20792;SDS011;10556;-33.662;151.094;2023-04-03T20:27:48;5.03;;;0.80;;
20792;SDS011;10556;-33.662;151.094;2023-04-03T20:32:51;1.50;;;0.93;;
20792;SDS011;10556;-33.662;151.094;2023-04-03T20:37:52;4.07;;;0.73;;
20792;SDS011;10556;-33.662;151.094;2023-04-03T20:42:53;1.13;;;0.60;;
20792;SDS011;10556;-33.662;151.094;2023-04-03T20:47:57;2.47;;;0.70;;
20792;SDS011;10556;-33.662;151.094;2023-04-03T20:52:59;4.00;;;0.67;;
20792;SDS011;10556;-33.662;151.094;2023-04-03T20:58:01;5.77;;;0.80;;
20792;SDS011;10556;-33.662;151.094;2023-04-03T21:03:04;5.37;;;0.90;;
20792;SDS011;10556;-33.662;151.094;2023-04-03T21:23:55;1.73;;;0.47;;
20792;SDS011;10556;-33.662;151.094;2023-04-03T21:28:57;3.20;;;0.50;;
20792;SDS011;10556;-33.662;151.094;2023-04-03T21:34:00;2.10;;;0.50;;
20792;SDS011;10556;-33.662;151.094;2023-04-03T21:39:01;1.43;;;0.60;;
20792;SDS011;10556;-33.662;151.094;2023-04-03T21:44:03;2.20;;;0.47;;
20792;SDS011;10556;-33.662;151.094;2023-04-03T21:49:06;1.07;;;0.40;;
20792;SDS011;10556;-33.662;151.094;2023-04-03T21:54:08;4.13;;;0.50;;
20792;SDS011;10556;-33.662;151.094;2023-04-03T21:59:09;2.10;;;0.50;;
20792;SDS011;10556;-33.662;151.094;2023-04-03T22:04:12;2.90;;;0.43;;
20792;SDS011;10556;-33.662;151.094;2023-04-03T22:09:14;3.97;;;0.80;;
20792;SDS011;10556;-33.662;151.094;2023-04-03T22:14:15;3.07;;;0.40;;
20792;SDS011;10556;-33.662;151.094;2023-04-03T22:19:19;1.50;;;0.80;;
20792;SDS011;10556;-33.662;151.094;2023-04-03T22:24:20;0.60;;;0.40;;
20792;SDS011;10556;-33.662;151.094;2023-04-03T22:29:21;3.40;;;0.63;;
20792;SDS011;10556;-33.662;151.094;2023-04-03T22:34:25;1.90;;;0.60;;
20792;SDS011;10556;-33.662;151.094;2023-04-03T22:39:28;1.23;;;0.37;;
20792;SDS011;10556;-33.662;151.094;2023-04-03T22:44:30;2.70;;;0.67;;
20792;SDS011;10556;-33.662;151.094;2023-04-03T22:49:33;4.67;;;0.93;;
20792;SDS011;10556;-33.662;151.094;2023-04-03T22:54:36;2.40;;;0.60;;
20792;SDS011;10556;-33.662;151.094;2023-04-03T22:59:37;1.33;;;0.70;;
20792;SDS011;10556;-33.662;151.094;2023-04-03T23:04:41;1.17;;;0.57;;
20792;SDS011;10556;-33.662;151.094;2023-04-03T23:09:42;0.73;;;0.50;;
20792;SDS011;10556;-33.662;151.094;2023-04-03T23:14:44;1.07;;;0.50;;
20792;SDS011;10556;-33.662;151.094;2023-04-03T23:19:47;1.37;;;0.63;;
20792;SDS011;10556;-33.662;151.094;2023-04-03T23:24:48;1.60;;;0.40;;
20792;SDS011;10556;-33.662;151.094;2023-04-03T23:29:50;3.00;;;0.67;;
20792;SDS011;10556;-33.662;151.094;2023-04-03T23:34:53;1.97;;;0.40;;
20792;SDS011;10556;-33.662;151.094;2023-04-03T23:39:54;1.60;;;0.70;;
20792;SDS011;10556;-33.662;151.094;2023-04-03T23:44:56;2.07;;;0.80;;
20792;SDS011;10556;-33.662;151.094;2023-04-03T23:49:59;1.93;;;0.63;;
20792;SDS011;10556;-33.662;151.094;2023-04-03T23:55:00;4.83;;;0.70;;
